This is the latest recevied weather packets stored in our database for station/object DL6DBZ-10. If no packets are shown the sender has not sent any weather packets the latest 10 day(s).
| Time | Temp. | Humidity | Pressure | Rain* | Wind** | Luminosity | Snow |
|---|---|---|---|---|---|---|---|
| 1787399067 | 17.22° C | 57% | 1024.5 hPa | - | - | - | - |
| 1787398166 | 17.22° C | 58% | 1024.5 hPa | - | - | - | - |
| 1787397266 | 18.89° C | 52% | 1024.1 hPa | - | - | - | - |
| 1787396366 | 20° C | 49% | 1023.8 hPa | - | - | - | - |
| 1787395466 | 18.33° C | 52% | 1023.8 hPa | - | - | - | - |
| 1787394566 | 18.89° C | 49% | 1023.8 hPa | - | - | - | - |
| 1787393666 | 20.56° C | 47% | 1023.6 hPa | - | - | - | - |
| 1787392765 | 21.67° C | 49% | 1023.4 hPa | - | - | - | - |
| 1787391871 | 21.11° C | 51% | 1023.6 hPa | - | - | - | - |
| 1787390971 | 17.22° C | 60% | 1023.8 hPa | - | - | - | - |
| 1787390071 | 18.89° C | 57% | 1023.5 hPa | - | - | - | - |
| 1787389171 | 18.33° C | 57% | 1023.4 hPa | - | - | - | - |
| 1787388271 | 18.33° C | 57% | 1023.2 hPa | - | - | - | - |
| 1787387371 | 22.22° C | 50% | 1022.9 hPa | - | - | - | - |
| 1787386471 | 18.33° C | 61% | 1023 hPa | - | - | - | - |
| 1787385570 | 17.78° C | 67% | 1023.1 hPa | - | - | - | - |
| 1787384670 | 18.33° C | 62% | 1022.8 hPa | - | - | - | - |
| 1787383770 | 16.11° C | 70% | 1022.8 hPa | - | - | - | - |
| 1787382870 | 16.11° C | 72% | 1022.7 hPa | - | - | - | - |
| 1787381970 | 15° C | 75% | 1022.5 hPa | - | - | - | - |
| 1787381070 | 15° C | 75% | 1022.4 hPa | - | - | - | - |
| 1787380170 | 14.44° C | 77% | 1022.3 hPa | - | - | - | - |
| 1787379270 | 14.44° C | 79% | 1022.2 hPa | - | - | - | - |
| 1787378370 | 13.89° C | 79% | 1022 hPa | - | - | - | - |
| 1787377469 | 13.89° C | 81% | 1021.9 hPa | - | - | - | - |
* Rain since midnight (hover to see other rain measurements)
** Current wind speed in m/s (hover to see current wind gust speed)